»·PEaware :: N130F K0L9-KTOA

N130F :: K0L9-KTOA

FLIGHT INFORMATION

Flight Status: Arrived
Operator: Privately registered:
United States
More flights under this callsign
Pilot: David J. (24489)
Aircraft: PILATUS PC-12 EAGLE
(PC12)
More flights by this aircraft type
Origin: K0L9
Destination: KTOA Zamperini
United States
More flights between these airports :: More routes between these airports
Route: +BLD J107 HEC KAYOH7
File this flight plan on PilotEdge
Remarks: RMK / SIMBRIEF
Altitude:
(Current/Filed)
22,000ft
Speed:
(Current/Filed)
275kts
Departed: 11-Jan-20 05:46 PM
Arrived: 11-Jan-20 06:59 PM
Distance/Time
Traveled:
Not Available
Distance/Time
To Go:
Arrived

Flight Plot

Page will automatically refresh every two minutes.

Flight plan parsing failed; only flown route is shown


Map Options




Map Legend


Flown Route
Filed Route
Departure Airport
Arrival Airport
Navaid (VOR, NDB)
Fix

Horizontal Profiles

Position Reports

Time Latitude Longitude Heading Altitude Ground
Speed
11-Jan-20 17:29 36.311417 -114.464571 168 1540ft 0kts
11-Jan-20 17:31 36.311416 -114.464571 168 1540ft 0kts
11-Jan-20 17:32 36.311416 -114.464571 168 1540ft 0kts
11-Jan-20 17:33 36.311416 -114.464571 168 1540ft 0kts
11-Jan-20 17:34 36.311416 -114.464571 168 1540ft 0kts
11-Jan-20 17:35 36.311416 -114.464571 168 1540ft 0kts
11-Jan-20 17:36 36.311416 -114.464571 168 1540ft 0kts
11-Jan-20 17:37 36.311416 -114.464571 168 1540ft 0kts
11-Jan-20 17:38 36.311349 -114.465045 270 1540ft 0kts
11-Jan-20 17:39 36.311299 -114.465215 210 1540ft 0kts
11-Jan-20 17:40 36.311302 -114.465212 210 1540ft 0kts
11-Jan-20 17:41 36.311300 -114.465214 209 1540ft 0kts
11-Jan-20 17:42 36.311194 -114.465205 154 1540ft 0kts
11-Jan-20 17:43 36.311192 -114.465204 154 1540ft 0kts
11-Jan-20 17:44 36.311190 -114.465203 154 1540ft 0kts
11-Jan-20 17:45 36.311188 -114.465202 154 1540ft 0kts
11-Jan-20 17:46 36.311827 -114.458980 78 1540ft 92kts
11-Jan-20 17:47 36.336441 -114.436911 300 3349ft 172kts
11-Jan-20 17:48 36.304959 -114.479826 213 5437ft 199kts
11-Jan-20 17:49 36.265025 -114.522745 226 8287ft 170kts
11-Jan-20 17:50 36.231458 -114.565188 230 11106ft 171kts
11-Jan-20 17:51 36.197675 -114.608186 234 13504ft 186kts
11-Jan-20 17:52 36.160475 -114.655442 237 15510ft 193kts
11-Jan-20 17:52 36.128879 -114.695441 239 17125ft 195kts
11-Jan-20 17:54 36.084211 -114.752087 240 18909ft 209kts
11-Jan-20 17:54 36.047514 -114.798574 238 19009ft 239kts
11-Jan-20 17:55 35.999544 -114.858990 238 19007ft 250kts
11-Jan-20 17:57 35.944909 -114.932954 240 19145ft 245kts
11-Jan-20 17:57 35.909691 -114.980709 242 20593ft 212kts
11-Jan-20 17:58 35.871344 -115.033146 243 22006ft 212kts
11-Jan-20 17:59 35.828534 -115.091657 241 22066ft 242kts
11-Jan-20 18:00 35.782187 -115.154395 241 22063ft 250kts
11-Jan-20 18:01 35.734964 -115.218236 241 22059ft 252kts
11-Jan-20 18:02 35.687710 -115.282041 241 22056ft 253kts
11-Jan-20 18:03 35.640339 -115.345898 241 22053ft 253kts
11-Jan-20 18:04 35.592791 -115.409884 241 22051ft 253kts
11-Jan-20 18:05 35.545123 -115.473949 241 22048ft 254kts
11-Jan-20 18:06 35.497342 -115.537957 241 22045ft 254kts
11-Jan-20 18:07 35.449647 -115.601763 241 22042ft 254kts
11-Jan-20 18:08 35.401768 -115.665702 240 22038ft 254kts
11-Jan-20 18:09 35.353894 -115.729509 240 22050ft 254kts
11-Jan-20 18:10 35.305922 -115.793332 240 22045ft 255kts
11-Jan-20 18:11 35.257856 -115.857165 240 22041ft 255kts
11-Jan-20 18:12 35.209614 -115.921096 240 22037ft 255kts
11-Jan-20 18:13 35.161149 -115.985214 240 22034ft 256kts
11-Jan-20 18:14 35.112524 -116.049419 239 22030ft 258kts
11-Jan-20 18:15 35.063789 -116.113639 239 22029ft 259kts
11-Jan-20 18:16 35.014765 -116.178117 239 22032ft 259kts
11-Jan-20 18:17 34.965532 -116.242749 239 22036ft 259kts
11-Jan-20 18:18 34.916301 -116.307262 239 22039ft 260kts
11-Jan-20 18:19 34.866851 -116.371933 239 22042ft 261kts
11-Jan-20 18:20 34.817363 -116.436527 238 22066ft 261kts
11-Jan-20 18:21 34.766873 -116.500471 237 22066ft 263kts
11-Jan-20 18:22 34.715375 -116.563631 237 22067ft 263kts
11-Jan-20 18:23 34.663775 -116.627014 237 22067ft 263kts
11-Jan-20 18:24 34.611899 -116.690712 236 21435ft 272kts
11-Jan-20 18:25 34.563800 -116.749308 238 20067ft 221kts
11-Jan-20 18:26 34.522044 -116.800474 239 18939ft 208kts
11-Jan-20 18:27 34.481736 -116.849756 239 17855ft 209kts
11-Jan-20 18:28 34.435764 -116.905970 236 16619ft 251kts
11-Jan-20 18:29 34.385610 -116.966887 235 15248ft 258kts
11-Jan-20 18:30 34.334869 -117.028559 234 13870ft 254kts
11-Jan-20 18:31 34.286950 -117.086656 234 12568ft 238kts
11-Jan-20 18:32 34.226920 -117.117483 196 12169ft 237kts
11-Jan-20 18:33 34.161120 -117.129239 198 12567ft 279kts
11-Jan-20 18:34 34.090732 -117.141567 188 9570ft 242kts
11-Jan-20 18:35 34.033396 -117.147823 190 9352ft 218kts
11-Jan-20 18:36 33.962511 -117.157937 190 9151ft 270kts
11-Jan-20 18:37 33.892085 -117.168242 190 8787ft 243kts
11-Jan-20 18:38 33.825226 -117.178198 192 8383ft 241kts
11-Jan-20 18:39 33.779147 -117.226866 257 8014ft 227kts
11-Jan-20 18:40 33.777910 -117.300969 273 7984ft 223kts
11-Jan-20 18:41 33.778476 -117.376051 273 7982ft 224kts
11-Jan-20 18:42 33.779121 -117.450619 274 7979ft 223kts
11-Jan-20 18:43 33.779756 -117.525482 274 7987ft 223kts
11-Jan-20 18:44 33.780443 -117.600317 274 7991ft 225kts
11-Jan-20 18:45 33.781024 -117.677367 273 7166ft 228kts
11-Jan-20 18:46 33.781563 -117.750769 273 6009ft 222kts
11-Jan-20 18:47 33.782021 -117.824394 273 5986ft 227kts
11-Jan-20 18:48 33.775491 -117.900187 246 5742ft 242kts
11-Jan-20 18:49 33.743842 -117.968283 240 3942ft 202kts
11-Jan-20 18:50 33.718449 -118.023014 241 2999ft 190kts
11-Jan-20 18:51 33.696281 -118.084426 265 2997ft 210kts
11-Jan-20 18:52 33.697650 -118.155456 271 2991ft 214kts
11-Jan-20 18:53 33.714082 -118.219798 317 2721ft 196kts
11-Jan-20 18:54 33.749548 -118.256124 305 1722ft 128kts
11-Jan-20 18:55 33.769737 -118.288611 307 1228ft 130kts
11-Jan-20 18:56 33.788600 -118.316723 307 467ft 85kts
11-Jan-20 18:57 33.802800 -118.337907 304 108ft 59kts
11-Jan-20 18:58 33.806083 -118.344631 276 108ft 10kts
11-Jan-20 18:59 33.804868 -118.345708 30 108ft 0kts

Navigation Log

Ident Type
Flight plan parsing failed, navigation log unavailable